Time;durP1;ratioP1;P1;durP2;ratioP2;P2;SDS_P1;SDS_P2;PMS_P1;PMS_P2;Temp;Humidity;BMP_temperature;BMP_pressure;BME280_temperature;BME280_humidity;BME280_pressure;Samples;Min_cycle;Max_cycle;Signal;HPM_P1;HPM_P2
2022/03/25 00:00:45;;;;;;;136.57;56.63;;;;;;;1.24;56.48;99946.53;2172106;82;21035;-61
2022/03/25 00:03:47;;;;;;;172.87;69.10;;;;;;;1.29;56.85;99944.31;2172341;82;21581;-61
2022/03/25 00:06:48;;;;;;;123.55;50.65;;;;;;;1.26;56.53;99936.58;2172146;82;21332;-61
2022/03/25 00:09:50;;;;;;;149.10;60.88;;;;;;;1.06;56.89;99938.41;2171997;82;21067;-61
2022/03/25 00:12:51;;;;;;;160.75;62.65;;;;;;;0.83;56.97;99935.07;2172408;82;21050;-61
2022/03/25 00:15:53;;;;;;;170.92;68.40;;;;;;;0.70;57.45;99930.78;2171947;82;21121;-61
2022/03/25 00:18:54;;;;;;;157.88;64.40;;;;;;;0.70;57.54;99926.91;2172185;82;21566;-61
2022/03/25 00:21:56;;;;;;;155.00;65.57;;;;;;;0.76;58.06;99928.20;2172005;82;21060;-61
2022/03/25 00:24:57;;;;;;;163.52;65.40;;;;;;;0.79;57.82;99933.77;2172006;82;21529;-61
2022/03/25 00:27:59;;;;;;;167.75;66.77;;;;;;;0.74;57.83;99923.91;2171892;82;21037;-61
2022/03/25 00:31:01;;;;;;;158.57;63.28;;;;;;;0.72;57.99;99923.03;2171999;82;21106;-61
2022/03/25 00:34:03;;;;;;;151.30;61.40;;;;;;;0.72;58.12;99918.75;2172107;82;21122;-60
2022/03/25 00:37:04;;;;;;;143.72;55.17;;;;;;;0.65;58.16;99920.92;2172077;82;21522;-61
2022/03/25 00:40:06;;;;;;;131.37;50.90;;;;;;;0.63;58.51;99920.05;2172330;82;21070;-61
2022/03/25 00:43:09;;;;;;;126.80;51.18;;;;;;;0.61;58.50;99912.31;2172100;82;21808;-61
2022/03/25 00:46:11;;;;;;;104.10;43.73;;;;;;;0.54;58.50;99913.64;2172429;82;20994;-61
2022/03/25 00:49:12;;;;;;;139.75;53.10;;;;;;;0.48;58.25;99908.91;2172532;82;21094;-61
2022/03/25 00:52:14;;;;;;;136.30;51.88;;;;;;;0.53;58.57;99908.03;2172313;82;21643;-61
2022/03/25 00:55:15;;;;;;;107.70;45.63;;;;;;;0.51;58.44;99905.46;2172569;82;20986;-61
2022/03/25 00:58:19;;;;;;;100.27;43.17;;;;;;;0.42;59.00;99914.09;2172141;82;21054;-61
2022/03/25 01:01:20;;;;;;;130.50;53.65;;;;;;;0.27;59.51;99906.37;2161876;82;21497;-61
2022/03/25 01:04:22;;;;;;;139.75;55.55;;;;;;;0.21;59.31;99904.66;2172447;82;20982;-61
2022/03/25 01:07:24;;;;;;;142.85;55.05;;;;;;;0.20;59.26;99900.34;2172520;82;21830;-61
2022/03/25 01:10:26;;;;;;;141.80;56.02;;;;;;;0.29;59.02;99902.08;2171908;82;21095;-60
2022/03/25 01:13:33;;;;;;;141.68;56.25;;;;;;;0.33;58.84;99906.34;2172168;82;21066;-61
2022/03/25 01:16:31;;;;;;;138.82;57.13;;;;;;;0.32;58.95;99904.66;2161976;82;21478;-61
2022/03/25 01:19:34;;;;;;;143.75;59.53;;;;;;;0.32;58.61;99901.63;2172361;82;20983;-61
2022/03/25 01:22:35;;;;;;;144.75;56.35;;;;;;;0.25;59.19;99906.38;2172381;82;21034;-61
2022/03/25 01:25:37;;;;;;;136.80;53.63;;;;;;;0.22;59.27;99906.38;2172147;82;21017;-61
2022/03/25 01:28:38;;;;;;;139.92;55.75;;;;;;;0.29;59.26;99900.34;2172231;82;21013;-61
2022/03/25 01:31:40;;;;;;;120.50;50.93;;;;;;;0.27;59.08;99902.05;2172478;82;20991;-61
2022/03/25 01:34:41;;;;;;;139.30;55.05;;;;;;;0.26;59.47;99902.06;2172666;82;21549;-60
2022/03/25 01:37:43;;;;;;;128.72;53.05;;;;;;;0.29;59.70;99893.90;2172045;82;21074;-60
2022/03/25 01:40:45;;;;;;;131.43;51.92;;;;;;;0.23;59.63;99891.75;2172473;82;21553;-60
2022/03/25 01:43:46;;;;;;;126.00;50.52;;;;;;;0.16;59.71;99895.64;2172254;82;21026;-60
2022/03/25 01:46:48;;;;;;;128.78;52.40;;;;;;;0.09;60.08;99894.37;2172046;82;21553;-61
2022/03/25 01:49:49;;;;;;;126.15;51.53;;;;;;;0.07;60.30;99894.78;2172153;81;21082;-60
2022/03/25 01:52:51;;;;;;;150.30;60.67;;;;;;;0.03;60.04;99896.52;2172364;82;21106;-61
2022/03/25 01:55:52;;;;;;;147.85;55.60;;;;;;;-0.01;60.28;99890.94;2172452;82;21038;-60
2022/03/25 01:58:54;;;;;;;118.77;47.77;;;;;;;-0.04;60.24;99891.79;2172320;82;21122;-61
2022/03/25 02:01:55;;;;;;;115.37;46.73;;;;;;;-0.07;59.92;99895.67;2172095;82;21117;-61
2022/03/25 02:04:58;;;;;;;119.55;46.60;;;;;;;-0.15;59.95;99897.82;2171911;82;21086;-61
2022/03/25 02:08:00;;;;;;;119.10;44.73;;;;;;;-0.23;59.97;99900.38;2172040;82;21113;-60
2022/03/25 02:11:02;;;;;;;110.15;43.40;;;;;;;-0.28;60.31;99904.69;2172201;82;21598;-61
2022/03/25 02:14:03;;;;;;;111.70;43.23;;;;;;;-0.27;60.58;99902.55;2172250;82;21033;-60
2022/03/25 02:17:05;;;;;;;102.80;41.68;;;;;;;-0.23;60.71;99913.27;2172071;82;21046;-60
2022/03/25 02:20:08;;;;;;;110.25;43.55;;;;;;;-0.18;60.65;99908.99;2172249;82;20970;-60
2022/03/25 02:23:09;;;;;;;109.05;43.17;;;;;;;-0.26;60.66;99910.29;2161847;82;20940;-60
2022/03/25 02:26:11;;;;;;;104.15;43.15;;;;;;;-0.25;60.96;99905.98;2172181;82;20998;-61
2022/03/25 02:29:14;;;;;;;117.57;45.73;;;;;;;-0.23;60.91;99910.28;2172356;82;21133;-60
2022/03/25 02:32:16;;;;;;;105.78;43.38;;;;;;;-0.20;61.13;99911.57;2172217;82;20990;-60
2022/03/25 02:35:17;;;;;;;103.85;41.08;;;;;;;-0.21;60.92;99910.28;2172303;82;21442;-60
2022/03/25 02:38:19;;;;;;;102.20;41.18;;;;;;;-0.26;60.59;99911.58;2172264;82;20955;-61
2022/03/25 02:41:20;;;;;;;116.67;40.17;;;;;;;-0.41;60.92;99911.13;2172301;82;21066;-61
2022/03/25 02:44:22;;;;;;;96.32;39.63;;;;;;;-0.46;60.99;99915.43;2172405;82;21041;-61
2022/03/25 02:47:23;;;;;;;95.77;40.88;;;;;;;-0.52;61.32;99915.40;2172008;82;21413;-61
2022/03/25 02:50:25;;;;;;;91.02;36.17;;;;;;;-0.50;61.70;99914.11;2174390;81;21010;-61
2022/03/25 02:53:27;;;;;;;95.30;38.92;;;;;;;-0.41;61.79;99919.30;2182151;81;20943;-60
2022/03/25 02:56:29;;;;;;;100.20;38.45;;;;;;;-0.43;61.42;99919.70;2182204;81;21006;-60
2022/03/25 02:59:30;;;;;;;98.90;39.27;;;;;;;-0.44;61.54;99912.84;2182301;81;21025;-60
2022/03/25 03:02:32;;;;;;;98.17;39.38;;;;;;;-0.46;61.52;99918.00;2182263;81;20986;-61
2022/03/25 03:05:33;;;;;;;97.50;37.33;;;;;;;-0.41;61.59;99915.42;2182231;81;21013;-60
2022/03/25 03:08:35;;;;;;;87.22;36.83;;;;;;;-0.32;61.54;99915.42;2182211;81;21552;-60
2022/03/25 03:11:37;;;;;;;86.75;35.23;;;;;;;-0.26;61.45;99916.73;2182024;82;21034;-60
2022/03/25 03:14:38;;;;;;;84.32;35.52;;;;;;;-0.29;60.90;99910.70;2182357;81;21541;-60
2022/03/25 03:17:40;;;;;;;90.70;35.08;;;;;;;-0.43;60.87;99915.42;2182168;81;21054;-60
2022/03/25 03:20:42;;;;;;;109.75;41.95;;;;;;;-0.49;61.14;99920.55;2182375;81;21450;-60
2022/03/25 03:23:43;;;;;;;105.93;41.73;;;;;;;-0.43;61.46;99922.28;2182226;82;21301;-60
2022/03/25 03:26:45;;;;;;;153.30;57.00;;;;;;;-0.45;61.36;99914.55;2182213;82;21532;-61
2022/03/25 03:29:46;;;;;;;109.27;43.38;;;;;;;-0.46;61.93;99925.73;2182208;82;21005;-61
2022/03/25 03:32:54;;;;;;;89.42;35.60;;;;;;;-0.43;62.05;99916.72;2181989;81;21485;-60
2022/03/25 03:35:51;;;;;;;85.83;35.17;;;;;;;-0.36;61.85;99917.56;2163705;82;21473;-60
2022/03/25 03:38:52;;;;;;;79.12;33.00;;;;;;;-0.38;61.50;99920.14;2182326;81;21021;-60
2022/03/25 03:41:54;;;;;;;105.83;42.38;;;;;;;-0.48;61.59;99923.57;2182210;81;21032;-60
2022/03/25 03:44:55;;;;;;;94.15;37.55;;;;;;;-0.63;61.96;99931.27;2182332;81;20974;-61
2022/03/25 03:47:57;;;;;;;94.20;37.38;;;;;;;-0.79;62.36;99932.53;2182166;81;20966;-60
2022/03/25 03:50:58;;;;;;;112.70;45.88;;;;;;;-0.70;62.61;99929.97;2179054;81;21011;-61
2022/03/25 03:54:00;;;;;;;97.60;40.90;;;;;;;-0.65;62.45;99926.55;2172024;82;21121;-61
2022/03/25 03:57:01;;;;;;;92.85;40.35;;;;;;;-0.72;62.56;99923.09;2172128;82;21050;-60
2022/03/25 04:00:03;;;;;;;81.35;34.15;;;;;;;-0.72;62.85;99929.53;2172287;82;20982;-61
2022/03/25 04:03:06;;;;;;;95.85;38.33;;;;;;;-0.85;63.21;99924.77;2172132;82;21055;-61
2022/03/25 04:06:09;;;;;;;89.30;38.23;;;;;;;-1.06;63.82;99926.86;2171628;82;21078;-60
2022/03/25 04:09:10;;;;;;;92.80;38.60;;;;;;;-1.09;63.65;99921.70;2172271;82;21062;-61
2022/03/25 04:12:13;;;;;;;87.25;36.50;;;;;;;-1.06;63.82;99928.16;2172031;82;21051;-61
2022/03/25 04:15:15;;;;;;;91.10;37.48;;;;;;;-1.07;63.73;99920.83;2172045;82;21072;-60
2022/03/25 04:18:17;;;;;;;91.82;38.70;;;;;;;-1.11;64.17;99929.39;2172084;82;21062;-61
2022/03/25 04:21:18;;;;;;;101.82;41.55;;;;;;;-1.11;64.47;99926.82;2172070;82;21569;-60
2022/03/25 04:24:20;;;;;;;100.67;41.08;;;;;;;-1.04;64.37;99926.42;2172329;82;20958;-60
2022/03/25 04:27:21;;;;;;;103.10;38.85;;;;;;;-0.99;64.09;99928.61;2172286;82;21504;-61
2022/03/25 04:30:23;;;;;;;133.23;52.73;;;;;;;-0.96;63.65;99930.30;2172713;82;20982;-61
2022/03/25 04:33:24;;;;;;;140.10;56.13;;;;;;;-0.98;63.99;99929.02;2172465;82;21462;-60
2022/03/25 04:36:26;;;;;;;102.27;40.28;;;;;;;-0.95;63.91;99929.05;2172299;82;21089;-61
2022/03/25 04:39:27;;;;;;;90.70;35.97;;;;;;;-0.91;63.30;99929.91;2172438;82;20984;-60
2022/03/25 04:42:29;;;;;;;87.13;34.43;;;;;;;-0.89;63.15;99927.78;2172462;82;21510;-60
2022/03/25 04:45:31;;;;;;;83.12;34.65;;;;;;;-0.75;63.54;99930.81;2172428;82;21010;-60
2022/03/25 04:48:33;;;;;;;87.67;36.30;;;;;;;-0.66;63.27;99932.14;2172388;82;21592;-61
2022/03/25 04:51:34;;;;;;;91.83;35.13;;;;;;;-0.58;62.65;99936.02;2172345;81;21025;-60
2022/03/25 04:54:36;;;;;;;102.85;36.60;;;;;;;-0.63;62.90;99935.13;2172366;82;21470;-60
2022/03/25 04:57:39;;;;;;;;;;;;;;;-0.59;63.18;99939.03;2174967;82;21492;-60
2022/03/25 05:00:40;;;;;;;74.35;30.80;;;;;;;-0.53;62.81;99939.03;2172289;82;20116;-60
2022/03/25 05:03:41;;;;;;;82.85;32.55;;;;;;;-0.53;62.61;99939.47;2172319;82;20978;-60
2022/03/25 05:06:43;;;;;;;121.42;49.10;;;;;;;-0.50;62.61;99939.47;2172266;82;20975;-60
2022/03/25 05:09:44;;;;;;;85.27;34.03;;;;;;;-0.42;63.14;99945.48;2172523;82;21011;-60
2022/03/25 05:12:46;;;;;;;77.53;33.55;;;;;;;-0.14;63.10;99943.36;2172314;82;21569;-60
2022/03/25 05:15:48;;;;;;;79.73;34.93;;;;;;;0.10;62.84;99945.09;2172317;82;21110;-60
2022/03/25 05:18:49;;;;;;;79.25;34.53;;;;;;;0.19;62.66;99948.97;2172565;82;21512;-60
2022/03/25 05:21:51;;;;;;;81.40;34.85;;;;;;;0.22;62.72;99951.98;2172168;82;21089;-60
2022/03/25 05:24:52;;;;;;;76.42;33.05;;;;;;;0.38;62.45;99952.83;2172154;82;21573;-60
2022/03/25 05:27:54;;;;;;;68.33;31.00;;;;;;;0.38;62.21;99960.12;2172213;82;21068;-60
2022/03/25 05:30:55;;;;;;;80.47;33.40;;;;;;;0.43;62.43;99963.58;2172777;82;21517;-60
2022/03/25 05:33:57;;;;;;;77.22;33.33;;;;;;;0.56;62.72;99960.95;2172273;82;21155;-61
2022/03/25 05:36:58;;;;;;;71.82;31.97;;;;;;;0.84;62.38;99960.02;2172145;82;20978;-60
2022/03/25 05:39:59;;;;;;;71.85;31.55;;;;;;;1.11;62.29;99958.20;2172421;82;20990;-60
2022/03/25 05:43:01;;;;;;;74.47;32.93;;;;;;;1.28;62.29;99957.25;2172087;82;21086;-60
2022/03/25 05:46:03;;;;;;;76.53;33.15;;;;;;;1.59;62.14;99964.41;2172127;82;21017;-60
2022/03/25 05:49:05;;;;;;;;;;;;;;;1.83;61.78;99960.80;2174824;82;21026;-60
2022/03/25 05:52:08;;;;;;;84.28;37.63;;;;;;;1.97;61.46;99965.89;2177273;81;20113;-60
2022/03/25 05:55:09;;;;;;;95.12;39.42;;;;;;;2.12;61.60;99967.93;2182103;81;21489;-60
2022/03/25 05:58:11;;;;;;;150.68;55.78;;;;;;;2.33;62.23;99969.45;2182445;81;21021;-60
2022/03/25 06:01:13;;;;;;;123.90;49.73;;;;;;;2.73;62.41;99960.88;2182083;81;21036;-60
2022/03/25 06:04:14;;;;;;;136.03;52.38;;;;;;;3.08;60.82;99969.13;2182300;81;20990;-60
2022/03/25 06:07:16;;;;;;;143.93;57.88;;;;;;;3.24;61.01;99971.08;2182005;81;20970;-60
2022/03/25 06:10:17;;;;;;;103.50;45.80;;;;;;;3.47;61.28;99979.41;2182194;81;21086;-60
2022/03/25 06:13:19;;;;;;;93.65;44.25;;;;;;;3.78;61.59;99974.25;2182079;81;20986;-61
2022/03/25 06:16:20;;;;;;;88.37;42.27;;;;;;;3.97;61.29;99978.71;2182517;81;20998;-60
2022/03/25 06:19:22;;;;;;;100.60;44.35;;;;;;;4.16;60.57;99976.67;2182180;81;21018;-60
2022/03/25 06:22:24;;;;;;;91.25;42.85;;;;;;;4.28;60.41;99979.08;2182326;81;21560;-60
2022/03/25 06:25:25;;;;;;;88.75;44.42;;;;;;;4.36;60.08;99981.53;2182130;82;20962;-60
2022/03/25 06:28:27;;;;;;;91.17;43.23;;;;;;;4.59;60.88;99981.58;2182506;82;21497;-60
2022/03/25 06:31:28;;;;;;;92.47;42.20;;;;;;;4.91;60.89;99980.96;2182052;81;20938;-60
2022/03/25 06:34:30;;;;;;;99.32;43.90;;;;;;;5.19;60.10;99979.98;2182083;82;21462;-60
2022/03/25 06:37:32;;;;;;;94.30;42.53;;;;;;;5.29;59.28;99978.05;2182003;82;21124;-61
2022/03/25 06:40:34;;;;;;;85.83;41.20;;;;;;;5.31;59.32;99985.36;2182433;81;21531;-61
2022/03/25 06:43:35;;;;;;;86.22;38.78;;;;;;;5.41;59.17;99985.19;2182031;81;20974;-60
2022/03/25 06:46:37;;;;;;;75.65;36.55;;;;;;;5.49;58.67;99988.49;2181949;81;21536;-61
2022/03/25 06:49:38;;;;;;;75.37;36.38;;;;;;;5.69;58.44;99989.36;2182361;82;20939;-61
2022/03/25 06:52:40;;;;;;;74.37;35.65;;;;;;;5.99;58.13;99983.04;2181920;81;21018;-60
2022/03/25 06:55:43;;;;;;;74.03;34.47;;;;;;;6.14;58.16;99982.68;2182361;81;20975;-61
2022/03/25 06:58:44;;;;;;;71.85;33.40;;;;;;;6.35;56.14;99985.64;2182121;81;21282;-60
2022/03/25 07:01:46;;;;;;;72.22;34.27;;;;;;;6.52;56.10;99985.22;2182138;81;20986;-61
2022/03/25 07:04:47;;;;;;;68.65;35.40;;;;;;;6.82;56.06;99982.70;2182365;81;20998;-61
2022/03/25 07:07:49;;;;;;;68.62;32.20;;;;;;;7.20;55.93;99984.25;2181998;82;21084;-61
2022/03/25 07:10:50;;;;;;;66.57;32.60;;;;;;;7.56;55.08;99986.67;2182484;82;20947;-60
2022/03/25 07:13:52;;;;;;;64.40;31.48;;;;;;;7.82;54.84;99984.18;2182029;81;20998;-60
2022/03/25 07:16:54;;;;;;;65.52;31.62;;;;;;;8.13;53.96;99982.73;2181963;81;21609;-61
2022/03/25 07:19:55;;;;;;;65.05;32.00;;;;;;;8.33;53.93;99991.22;2182125;81;20986;-61
2022/03/25 07:22:57;;;;;;;69.82;32.85;;;;;;;8.60;53.29;99986.86;2182469;82;21472;-61
2022/03/25 07:25:58;;;;;;;63.33;30.20;;;;;;;8.98;53.51;99988.59;2182206;81;20982;-61
2022/03/25 07:29:00;;;;;;;53.27;26.80;;;;;;;9.42;52.29;99989.62;2182443;82;21540;-61
2022/03/25 07:32:01;;;;;;;54.67;25.70;;;;;;;9.72;51.35;99992.84;2182332;82;21016;-61
2022/03/25 07:35:03;;;;;;;51.53;23.52;;;;;;;9.98;50.85;99991.80;2181921;81;21139;-61
2022/03/25 07:38:06;;;;;;;54.40;24.47;;;;;;;10.27;50.56;99987.61;2182078;81;20962;-61
2022/03/25 07:41:07;;;;;;;47.00;23.45;;;;;;;10.76;50.63;99992.16;2182203;82;21485;-61
2022/03/25 07:44:09;;;;;;;46.73;21.55;;;;;;;11.07;48.98;99984.23;2182041;82;21018;-61
2022/03/25 07:47:12;;;;;;;37.20;17.53;;;;;;;11.21;47.79;99983.63;2182001;81;21578;-60
2022/03/25 07:50:13;;;;;;;38.33;16.60;;;;;;;11.50;47.25;99989.31;2181962;81;21009;-60
2022/03/25 07:53:15;;;;;;;32.73;13.88;;;;;;;11.75;45.58;99994.26;2181910;81;21022;-61
2022/03/25 07:56:17;;;;;;;41.10;14.43;;;;;;;11.82;43.63;99993.52;2182411;81;20990;-61
2022/03/25 07:59:18;;;;;;;37.33;15.23;;;;;;;11.98;43.09;99990.56;2182036;82;21241;-61
2022/03/25 08:02:20;;;;;;;33.53;14.78;;;;;;;12.08;43.42;99977.82;2181995;82;21058;-61
2022/03/25 08:05:23;;;;;;;34.80;14.18;;;;;;;12.28;40.94;99990.87;2182009;82;21050;-61
2022/03/25 08:08:25;;;;;;;;;;;;;;;12.30;41.49;99990.31;2184671;82;21002;-61
2022/03/25 08:11:27;;;;;;;31.37;13.00;;;;;;;12.50;41.12;100000.31;2181992;82;20109;-61
2022/03/25 08:14:29;;;;;;;34.27;13.30;;;;;;;12.66;40.33;99987.23;2181877;82;21029;-61
2022/03/25 08:17:30;;;;;;;30.32;12.28;;;;;;;12.82;39.18;99992.08;2182172;81;21337;-61
2022/03/25 08:29:42;;;;;;;30.57;10.93;;;;;;;13.48;37.42;99993.03;2163258;82;21615;-60
2022/03/25 08:32:44;;;;;;;28.83;10.48;;;;;;;13.62;37.01;99990.97;2182323;81;21045;-61
2022/03/25 08:35:47;;;;;;;29.35;10.53;;;;;;;13.64;37.32;99991.72;2182054;81;20986;-61
2022/03/25 08:38:48;;;;;;;29.35;11.38;;;;;;;13.64;37.60;99987.77;2181982;82;21026;-61
2022/03/25 08:41:50;;;;;;;27.60;10.00;;;;;;;13.77;35.39;99988.41;2182324;81;20947;-61
2022/03/25 08:44:52;;;;;;;27.15;10.00;;;;;;;13.85;36.67;99998.07;2182182;82;21010;-61
2022/03/25 08:47:53;;;;;;;27.50;9.73;;;;;;;14.16;36.94;99987.09;2182137;81;21125;-61
2022/03/25 08:50:54;;;;;;;27.93;10.10;;;;;;;14.41;33.99;99991.81;2182431;81;21496;-60
2022/03/25 08:53:56;;;;;;;30.63;9.73;;;;;;;14.58;35.11;99988.15;2173255;81;21002;-62
2022/03/25 08:56:57;;;;;;;26.73;9.87;;;;;;;14.86;36.43;99979.95;2171999;81;21636;-61
2022/03/25 08:59:59;;;;;;;30.65;11.05;;;;;;;15.13;35.02;99980.51;2171056;81;21073;-61
2022/03/25 09:03:00;;;;;;;31.53;10.90;;;;;;;15.24;32.73;99981.56;2169818;82;21041;-61
2022/03/25 09:06:03;;;;;;;26.27;10.30;;;;;;;15.16;34.56;99982.98;2169921;82;21058;-60
2022/03/25 09:09:04;;;;;;;27.75;10.75;;;;;;;15.09;34.38;99978.55;2169753;82;21597;-61
2022/03/25 09:12:08;;;;;;;27.67;11.03;;;;;;;15.32;34.29;99971.83;2170080;82;21560;-60
2022/03/25 09:15:09;;;;;;;30.40;12.18;;;;;;;15.03;32.11;99971.84;2169873;82;21050;-61
2022/03/25 09:18:12;;;;;;;30.95;12.65;;;;;;;15.02;33.13;99972.77;2170136;82;21033;-61
2022/03/25 09:21:14;;;;;;;30.30;11.65;;;;;;;15.14;33.59;99973.84;2170228;82;21632;-61
2022/03/25 09:24:16;;;;;;;31.07;11.83;;;;;;;15.28;32.01;99973.44;2169716;82;21105;-61
2022/03/25 09:27:17;;;;;;;31.27;12.50;;;;;;;15.38;33.56;99972.75;2169752;82;21759;-61
2022/03/25 09:30:19;;;;;;;33.88;12.58;;;;;;;15.47;32.15;99976.61;2164904;82;21091;-60
2022/03/25 09:33:20;;;;;;;31.77;12.88;;;;;;;15.51;32.59;99972.00;2158588;82;21058;-60
2022/03/25 09:36:21;;;;;;;28.97;12.03;;;;;;;15.71;33.16;99970.23;2158933;82;20937;-61
2022/03/25 09:39:23;;;;;;;30.40;11.80;;;;;;;15.84;31.16;99979.59;2158546;82;21011;-61
2022/03/25 09:42:25;;;;;;;28.57;10.90;;;;;;;15.82;31.82;99974.05;2158809;82;21735;-61
2022/03/25 09:45:26;;;;;;;;;;;;;;;15.78;30.36;99978.64;2161028;82;21047;-61
2022/03/25 09:48:28;;;;;;;27.52;11.05;;;;;;;15.46;31.23;99971.42;2158238;82;20125;-61
2022/03/25 09:51:30;;;;;;;27.25;10.80;;;;;;;15.76;31.26;99968.16;2158278;82;21047;-62
2022/03/25 09:54:31;;;;;;;32.67;11.20;;;;;;;16.02;31.07;99961.69;2158687;82;21473;-61
2022/03/25 09:57:33;;;;;;;28.70;10.80;;;;;;;16.29;29.88;99962.11;2158861;82;20996;-61
2022/03/25 10:00:35;;;;;;;28.00;11.40;;;;;;;16.16;29.72;99966.08;2158439;82;21501;-61
2022/03/25 10:03:37;;;;;;;28.75;10.50;;;;;;;16.17;30.80;99973.53;2158432;82;20988;-62
2022/03/25 10:06:39;;;;;;;28.15;11.00;;;;;;;16.25;30.28;99977.36;2158667;82;21518;-62
2022/03/25 10:09:40;;;;;;;29.40;10.55;;;;;;;16.28;30.07;99971.86;2158675;82;21066;-62
2022/03/25 10:12:42;;;;;;;26.85;11.12;;;;;;;16.32;30.42;99963.70;2158342;82;20996;-61
2022/03/25 10:15:44;;;;;;;31.00;12.50;;;;;;;16.18;28.79;99968.13;2158505;82;20968;-61
2022/03/25 10:18:45;;;;;;;28.52;11.57;;;;;;;16.18;28.79;99968.13;2158423;82;21016;-61
2022/03/25 10:21:47;;;;;;;27.80;10.72;;;;;;;15.99;30.34;99963.21;2158750;82;21008;-61
2022/03/25 10:24:48;;;;;;;26.87;10.82;;;;;;;15.96;30.68;99967.84;2158537;82;20981;-62
2022/03/25 10:27:50;;;;;;;28.52;11.83;;;;;;;16.18;29.49;99968.62;2110459;82;21035;-61
2022/03/25 10:30:51;;;;;;;29.33;11.33;;;;;;;15.99;30.27;99959.24;2102686;84;20999;-62
2022/03/25 10:33:57;;;;;;;25.40;9.63;;;;;;;16.25;30.52;99966.77;2102927;84;21768;-62
2022/03/25 10:36:57;;;;;;;27.98;9.70;;;;;;;16.33;30.32;99969.39;2089865;85;21074;-62
2022/03/25 10:39:58;;;;;;;26.20;10.55;;;;;;;16.48;30.02;99959.55;2102811;84;21006;-61
2022/03/25 10:43:00;;;;;;;27.53;10.83;;;;;;;16.44;30.38;99958.44;2103288;84;21478;-62
2022/03/25 10:46:01;;;;;;;26.90;9.53;;;;;;;16.82;30.56;99955.45;2102993;85;21045;-61
2022/03/25 10:49:05;;;;;;;27.37;9.73;;;;;;;16.90;28.78;99949.66;2090689;85;21061;-61
2022/03/25 10:52:08;;;;;;;25.72;10.03;;;;;;;16.67;29.31;99950.73;2120292;83;20961;-61
2022/03/25 10:55:10;;;;;;;27.73;10.68;;;;;;;16.71;29.45;99956.20;2171586;81;21461;-61
2022/03/25 10:58:11;;;;;;;29.92;10.78;;;;;;;16.75;29.08;99952.39;2172331;81;21080;-61
2022/03/25 11:01:13;;;;;;;27.47;10.77;;;;;;;16.86;29.58;99945.01;2171802;81;21081;-61
2022/03/25 11:04:14;;;;;;;28.85;10.60;;;;;;;17.16;30.51;99935.91;2171959;81;21268;-62
2022/03/25 11:07:16;;;;;;;24.67;8.90;;;;;;;17.49;29.31;99930.47;2171978;82;21069;-61
2022/03/25 11:10:17;;;;;;;25.35;10.28;;;;;;;17.45;28.84;99945.73;2171990;81;21528;-61
2022/03/25 11:13:19;;;;;;;29.72;10.32;;;;;;;17.43;28.27;99930.92;2171411;82;21014;-61
2022/03/25 11:16:20;;;;;;;26.37;10.05;;;;;;;17.47;29.24;99930.58;2171740;81;21020;-61
2022/03/25 11:19:21;;;;;;;28.92;9.85;;;;;;;17.66;29.71;99920.80;2165081;81;21079;-61
2022/03/25 11:22:23;;;;;;;28.98;10.60;;;;;;;17.87;28.92;99930.81;2158487;82;20992;-61
2022/03/25 11:25:24;;;;;;;28.02;11.43;;;;;;;17.89;28.74;99930.70;2158363;81;21590;-61
2022/03/25 11:28:26;;;;;;;27.22;10.40;;;;;;;17.86;28.95;99918.95;2158552;82;20977;-61
2022/03/25 11:31:28;;;;;;;29.55;11.08;;;;;;;18.09;28.69;99914.16;2158068;82;21007;-61
2022/03/25 11:34:29;;;;;;;28.38;10.95;;;;;;;18.00;27.58;99920.13;2157273;82;20992;-62
2022/03/25 11:37:31;;;;;;;29.80;10.58;;;;;;;17.71;28.86;99919.13;2158163;82;21071;-62
2022/03/25 11:40:32;;;;;;;26.55;8.80;;;;;;;17.71;28.67;99915.15;2158445;82;21020;-62
2022/03/25 11:43:34;;;;;;;27.60;10.63;;;;;;;17.57;28.84;99890.98;2158553;82;21019;-62
2022/03/25 11:46:35;;;;;;;28.00;10.95;;;;;;;17.66;28.45;99924.78;2158699;82;21486;-62
2022/03/25 11:49:38;;;;;;;24.30;10.25;;;;;;;17.53;28.58;99915.16;2158858;82;20968;-62
2022/03/25 11:52:40;;;;;;;27.45;9.85;;;;;;;17.62;28.70;99903.90;2165772;81;21510;-62
2022/03/25 11:55:41;;;;;;;25.60;9.45;;;;;;;17.81;28.18;99900.73;2188393;81;21003;-62
2022/03/25 11:58:43;;;;;;;28.57;9.70;;;;;;;17.98;29.00;99904.33;2188720;81;21540;-62
2022/03/25 12:01:44;;;;;;;30.57;10.80;;;;;;;18.03;27.87;99909.31;2188861;81;21001;-61
2022/03/25 12:04:46;;;;;;;28.10;11.10;;;;;;;17.86;28.96;99902.58;2188694;81;21075;-62
2022/03/25 12:07:47;;;;;;;29.00;11.57;;;;;;;18.01;28.52;99900.60;2188800;81;20998;-62
2022/03/25 12:10:49;;;;;;;33.80;11.80;;;;;;;18.10;27.84;99891.96;2188637;81;21101;-62
2022/03/25 12:13:51;;;;;;;28.73;11.75;;;;;;;18.14;28.03;99884.59;2188850;81;20982;-62
2022/03/25 12:16:52;;;;;;;28.77;12.53;;;;;;;18.21;28.03;99895.61;2188671;81;21113;-62
2022/03/25 12:19:54;;;;;;;32.25;13.28;;;;;;;18.22;28.80;99879.55;2188742;81;21081;-62
2022/03/25 12:22:55;;;;;;;31.27;12.45;;;;;;;18.15;28.43;99883.15;2188686;81;21077;-62
2022/03/25 12:25:57;;;;;;;33.30;12.75;;;;;;;18.31;28.40;99871.36;2188692;81;21614;-63
2022/03/25 12:28:58;;;;;;;32.25;12.98;;;;;;;18.51;27.63;99874.64;2188703;81;20955;-64
2022/03/25 12:31:59;;;;;;;31.62;12.63;;;;;;;18.35;27.09;99880.30;2188997;81;21469;-63
2022/03/25 12:35:01;;;;;;;31.93;11.22;;;;;;;18.26;27.53;99874.84;2188326;81;21082;-62
2022/03/25 12:38:04;;;;;;;31.65;12.73;;;;;;;18.38;28.05;99873.08;2188655;81;21548;-63
2022/03/25 12:41:05;;;;;;;33.05;12.93;;;;;;;18.22;26.80;99876.06;2188677;81;21010;-63
2022/03/25 12:44:08;;;;;;;34.13;14.35;;;;;;;18.19;27.54;99866.52;2188922;81;21454;-63
2022/03/25 12:47:15;;;;;;;33.83;15.75;;;;;;;18.27;27.93;99865.42;2188824;81;21078;-62
2022/03/25 12:50:12;;;;;;;30.92;13.40;;;;;;;18.33;27.72;99854.82;2161635;81;21038;-62
2022/03/25 12:53:14;;;;;;;34.65;12.88;;;;;;;18.30;26.44;99855.06;2188997;81;21038;-62
2022/03/25 12:56:16;;;;;;;30.82;13.40;;;;;;;17.90;28.63;99859.39;2188882;81;21038;-62
2022/03/25 12:59:17;;;;;;;28.23;12.40;;;;;;;17.85;27.09;99861.06;2189021;81;20974;-62
2022/03/25 13:02:19;;;;;;;29.63;12.75;;;;;;;17.70;27.78;99849.80;2188885;81;20987;-62
2022/03/25 13:05:21;;;;;;;28.83;12.68;;;;;;;17.66;27.95;99849.17;2188535;81;21154;-62
2022/03/25 13:08:22;;;;;;;30.92;13.30;;;;;;;17.95;28.68;99841.35;2188852;81;20971;-62
2022/03/25 13:11:24;;;;;;;29.90;12.37;;;;;;;18.16;27.66;99833.08;2188869;81;20990;-63
2022/03/25 13:14:25;;;;;;;29.65;12.15;;;;;;;18.38;26.82;99835.41;2188523;81;21006;-63
2022/03/25 13:17:27;;;;;;;28.90;11.93;;;;;;;18.44;27.65;99832.26;2188827;81;21516;-63
2022/03/25 13:20:28;;;;;;;29.27;11.22;;;;;;;18.47;27.02;99844.46;2188822;81;20991;-62
2022/03/25 13:23:30;;;;;;;27.58;10.48;;;;;;;18.32;27.18;99835.39;2188814;81;21471;-63
2022/03/25 13:26:31;;;;;;;29.05;11.50;;;;;;;18.14;26.91;99834.16;2188821;81;21010;-62
2022/03/25 13:29:33;;;;;;;30.85;12.20;;;;;;;18.17;27.12;99817.98;2188834;81;21501;-62
2022/03/25 13:32:34;;;;;;;30.08;11.25;;;;;;;18.26;26.84;99821.27;2188846;81;21050;-62
2022/03/25 13:35:36;;;;;;;30.62;11.38;;;;;;;18.21;27.01;99820.77;2188789;81;21030;-62
2022/03/25 13:38:38;;;;;;;33.50;12.23;;;;;;;18.29;26.93;99818.37;2188969;81;20994;-62
2022/03/25 13:41:40;;;;;;;26.77;10.60;;;;;;;18.45;26.59;99819.84;2188826;81;21049;-60
2022/03/25 13:44:41;;;;;;;29.67;10.63;;;;;;;18.49;25.96;99818.16;2188852;81;21058;-59
2022/03/25 13:47:43;;;;;;;26.62;10.45;;;;;;;18.14;26.41;99826.19;2188754;81;21506;-60
2022/03/25 13:50:44;;;;;;;26.25;10.25;;;;;;;18.06;26.29;99812.65;2188771;81;21026;-59
2022/03/25 13:53:46;;;;;;;27.17;10.55;;;;;;;18.05;26.96;99818.94;2188843;81;21510;-60
2022/03/25 13:56:48;;;;;;;26.90;11.08;;;;;;;18.20;26.51;99810.27;2188831;81;20986;-60
2022/03/25 13:59:50;;;;;;;27.30;10.35;;;;;;;18.35;26.98;99802.45;2188806;81;21055;-60
2022/03/25 14:02:52;;;;;;;28.40;10.95;;;;;;;18.50;27.33;99806.57;2188617;81;20996;-60
2022/03/25 14:05:53;;;;;;;27.87;9.95;;;;;;;18.63;26.67;99809.11;2189117;81;21533;-60